createdAt,value
2022-12-08T00:00:20.010Z,1.67
2022-12-08T00:02:46.604Z,1.72
2022-12-08T00:05:31.692Z,1.82
2022-12-08T00:08:16.890Z,1.89
2022-12-08T00:10:49.279Z,2.02
2022-12-08T00:13:16.068Z,2.05
2022-12-08T00:15:42.551Z,2.28
2022-12-08T00:18:09.181Z,2.34
2022-12-08T00:20:35.682Z,2.53
2022-12-08T00:23:04.228Z,2.53
2022-12-08T00:25:31.541Z,2.52
2022-12-08T00:27:58.085Z,2.53
2022-12-08T00:30:24.620Z,2.56
2022-12-08T00:32:51.126Z,2.62
2022-12-08T00:35:17.655Z,2.70
2022-12-08T00:37:44.153Z,2.76
2022-12-08T00:40:10.846Z,2.90
2022-12-08T00:42:37.343Z,2.86
2022-12-08T00:45:03.945Z,2.92
2022-12-08T00:47:30.446Z,2.86
2022-12-08T00:49:57.068Z,2.74
2022-12-08T00:52:23.590Z,2.54
2022-12-08T00:54:50.077Z,2.40
2022-12-08T00:57:16.656Z,2.28
2022-12-08T00:59:43.169Z,2.15
2022-12-08T01:02:09.674Z,2.11
2022-12-08T01:04:36.183Z,2.08
2022-12-08T01:07:02.705Z,1.91
2022-12-08T01:09:29.225Z,1.81
2022-12-08T01:11:55.745Z,1.87
2022-12-08T01:14:22.280Z,1.89
2022-12-08T01:16:48.903Z,2.04
2022-12-08T01:19:15.769Z,2.11
2022-12-08T01:21:42.455Z,1.80
2022-12-08T01:24:12.802Z,1.55
2022-12-08T01:26:39.282Z,1.38
2022-12-08T01:29:05.985Z,1.46
2022-12-08T01:31:32.568Z,1.18
2022-12-08T01:33:59.081Z,1.05
2022-12-08T01:36:29.168Z,1.14
2022-12-08T01:38:56.919Z,1.06
2022-12-08T01:41:24.351Z,1.03
2022-12-08T01:43:56.763Z,0.94
2022-12-08T01:46:23.573Z,0.84
2022-12-08T01:48:50.875Z,0.90
2022-12-08T01:51:17.398Z,0.88
2022-12-08T01:53:43.954Z,0.83
2022-12-08T01:56:15.766Z,0.85
2022-12-08T01:58:43.922Z,0.76
2022-12-08T02:01:10.632Z,0.73
2022-12-08T02:03:39.513Z,0.72
2022-12-08T02:06:06.156Z,0.64
2022-12-08T02:08:32.669Z,0.72
2022-12-08T02:10:59.188Z,0.74
2022-12-08T02:13:25.698Z,0.71
2022-12-08T02:15:55.437Z,0.80
2022-12-08T02:18:37.054Z,0.74
2022-12-08T02:21:07.624Z,0.64
2022-12-08T02:23:36.782Z,0.61
2022-12-08T02:26:06.344Z,0.59
2022-12-08T02:28:35.620Z,0.58
2022-12-08T02:31:14.132Z,0.60
2022-12-08T02:33:59.315Z,0.59
2022-12-08T02:36:27.412Z,0.64
2022-12-08T02:38:53.852Z,0.65
2022-12-08T02:41:29.236Z,0.72
2022-12-08T02:44:04.153Z,0.64
2022-12-08T02:46:38.736Z,0.61
2022-12-08T02:49:05.280Z,0.65
2022-12-08T02:51:31.856Z,0.58
2022-12-08T02:53:58.344Z,0.58
2022-12-08T02:56:43.538Z,0.50
2022-12-08T02:59:15.917Z,0.55
2022-12-08T03:01:45.875Z,0.57
2022-12-08T03:04:27.737Z,0.54
2022-12-08T03:06:59.358Z,0.55
2022-12-08T03:09:31.862Z,0.58
2022-12-08T03:12:13.028Z,0.44
2022-12-08T03:14:40.549Z,0.60
2022-12-08T03:17:07.044Z,0.53
2022-12-08T03:19:37.593Z,0.66
2022-12-08T03:22:04.810Z,0.69
2022-12-08T03:24:31.839Z,0.55
2022-12-08T03:27:06.408Z,0.55
2022-12-08T03:29:32.902Z,0.57
2022-12-08T03:32:01.444Z,0.58
2022-12-08T03:34:28.478Z,0.60
2022-12-08T03:36:55.058Z,0.60
2022-12-08T03:39:21.642Z,0.59
2022-12-08T03:41:48.218Z,0.60
2022-12-08T03:44:14.729Z,0.60
2022-12-08T03:46:41.443Z,0.53
2022-12-08T03:49:07.938Z,0.38
2022-12-08T03:51:34.468Z,0.35
2022-12-08T03:54:00.958Z,0.41
2022-12-08T03:56:27.435Z,0.46
2022-12-08T03:58:53.972Z,0.38
2022-12-08T04:01:20.827Z,0.37
2022-12-08T04:03:47.394Z,0.42
2022-12-08T04:06:13.934Z,0.34
2022-12-08T04:08:40.442Z,0.28
2022-12-08T04:11:06.948Z,0.27
2022-12-08T04:13:34.301Z,0.34
2022-12-08T04:16:00.933Z,0.31
2022-12-08T04:18:27.485Z,0.30
2022-12-08T04:20:54.015Z,0.37
2022-12-08T04:23:20.526Z,0.36
2022-12-08T04:25:47.015Z,0.38
2022-12-08T04:28:13.646Z,0.27
2022-12-08T04:30:40.286Z,0.29
2022-12-08T04:33:06.856Z,0.32
2022-12-08T04:35:33.320Z,0.23
2022-12-08T04:37:59.793Z,0.24
2022-12-08T04:40:26.301Z,0.21
2022-12-08T04:42:52.810Z,0.29
2022-12-08T04:45:19.324Z,0.16
2022-12-08T04:47:45.917Z,0.16
2022-12-08T04:50:13.238Z,0.08
2022-12-08T04:52:39.807Z,0.20
2022-12-08T04:55:06.386Z,0.07
2022-12-08T04:57:32.885Z,0.08
2022-12-08T04:59:59.366Z,0.04
2022-12-08T05:02:25.920Z,-0.04
2022-12-08T05:04:52.456Z,0.01
2022-12-08T05:07:19.046Z,0.02
2022-12-08T05:09:45.578Z,0.01
2022-12-08T05:12:12.053Z,-0.01
2022-12-08T05:14:38.587Z,0.04
2022-12-08T05:17:09.508Z,-0.02
2022-12-08T05:19:36.474Z,-0.08
2022-12-08T05:22:02.951Z,-0.10
2022-12-08T05:24:29.761Z,-0.17
2022-12-08T05:26:56.237Z,-0.14
2022-12-08T05:29:22.721Z,-0.16
2022-12-08T05:31:49.364Z,-0.14
2022-12-08T05:34:15.958Z,-0.13
2022-12-08T05:36:42.451Z,-0.17
2022-12-08T05:39:09.792Z,-0.15
2022-12-08T05:41:36.298Z,-0.19
2022-12-08T05:44:02.823Z,-0.20
2022-12-08T05:46:29.529Z,-0.24
2022-12-08T05:48:56.066Z,-0.15
2022-12-08T05:51:23.370Z,-0.17
2022-12-08T05:53:50.350Z,-0.13
2022-12-08T05:56:17.114Z,-0.19
2022-12-08T05:58:43.665Z,-0.26
2022-12-08T06:01:27.533Z,-0.23
2022-12-08T06:03:54.332Z,-0.27
2022-12-08T06:06:21.186Z,-0.25
2022-12-08T06:08:47.720Z,-0.23
2022-12-08T06:11:17.770Z,-0.25
2022-12-08T06:13:44.265Z,-0.23
2022-12-08T06:16:10.831Z,-0.20
2022-12-08T06:18:37.429Z,-0.30
2022-12-08T06:21:04.676Z,-0.33
2022-12-08T06:23:31.167Z,-0.31
2022-12-08T06:26:01.898Z,-0.43
2022-12-08T06:28:29.062Z,-0.45
2022-12-08T06:30:55.543Z,-0.51
2022-12-08T06:33:22.023Z,-0.49
2022-12-08T06:35:48.522Z,-0.53
2022-12-08T06:38:15.093Z,-0.52
2022-12-08T06:40:41.570Z,-0.43
2022-12-08T06:43:08.065Z,-0.48
2022-12-08T06:45:34.647Z,-0.43
2022-12-08T06:48:01.987Z,-0.42
2022-12-08T06:50:28.761Z,-0.51
2022-12-08T06:53:03.016Z,-0.48
2022-12-08T06:58:18.263Z,-0.60
2022-12-08T07:00:44.847Z,-0.60
2022-12-08T07:03:11.801Z,-0.65
2022-12-08T07:05:38.672Z,-0.72
2022-12-08T07:08:05.747Z,-0.62
2022-12-08T07:10:32.278Z,-0.60
2022-12-08T07:12:58.757Z,-0.65
2022-12-08T07:15:25.258Z,-0.59
2022-12-08T07:17:56.397Z,-0.65
2022-12-08T07:20:26.188Z,-0.66
2022-12-08T07:22:52.876Z,-0.62
2022-12-08T07:25:19.544Z,-0.60
2022-12-08T07:27:46.059Z,-0.62
2022-12-08T07:30:13.029Z,-0.54
2022-12-08T07:32:39.534Z,-0.43
2022-12-08T07:35:06.512Z,-0.37
2022-12-08T07:37:33.305Z,-0.27
2022-12-08T07:39:59.805Z,-0.19
2022-12-08T07:42:26.503Z,-0.14
2022-12-08T07:44:53.013Z,-0.15
2022-12-08T07:47:19.518Z,-0.10
2022-12-08T07:49:46.018Z,-0.05
2022-12-08T07:52:12.615Z,0.04
2022-12-08T07:54:39.116Z,-0.01
2022-12-08T07:57:06.197Z,0.02
2022-12-08T07:59:32.855Z,-0.02
2022-12-08T08:02:21.337Z,0.12
2022-12-08T08:04:45.880Z,0.15
2022-12-08T08:07:12.518Z,0.15
2022-12-08T08:09:39.035Z,0.12
2022-12-08T08:12:29.550Z,-0.12
2022-12-08T08:14:52.244Z,-0.27
2022-12-08T08:17:18.801Z,-0.24
2022-12-08T08:19:46.190Z,-0.19
2022-12-08T08:22:12.705Z,-0.01
2022-12-08T08:24:44.464Z,0.08
2022-12-08T08:27:11.509Z,0.24
2022-12-08T08:29:38.021Z,0.21
2022-12-08T08:32:04.525Z,0.40
2022-12-08T08:34:31.138Z,0.50
2022-12-08T08:36:57.692Z,0.61
2022-12-08T08:39:24.221Z,0.60
2022-12-08T08:41:50.784Z,0.67
2022-12-08T08:44:17.341Z,0.75
2022-12-08T08:46:43.919Z,0.82
2022-12-08T08:49:10.485Z,0.88
2022-12-08T08:51:36.981Z,0.93
2022-12-08T08:54:03.499Z,0.93
2022-12-08T08:56:30.037Z,0.96
2022-12-08T08:58:56.710Z,1.06
2022-12-08T09:01:25.045Z,1.09
2022-12-08T09:03:51.626Z,1.16
2022-12-08T09:06:18.257Z,1.16
2022-12-08T09:08:44.788Z,1.03
2022-12-08T09:11:11.498Z,1.15
2022-12-08T09:13:38.110Z,1.22
2022-12-08T09:16:05.645Z,1.37
2022-12-08T09:18:32.393Z,1.34
2022-12-08T09:21:05.749Z,1.41
2022-12-08T09:23:35.639Z,1.42
2022-12-08T09:26:02.981Z,1.63
2022-12-08T09:28:29.555Z,1.73
2022-12-08T09:30:56.155Z,1.68
2022-12-08T09:33:22.735Z,1.75
2022-12-08T09:35:49.264Z,1.80
2022-12-08T09:38:15.778Z,1.84
2022-12-08T09:40:52.363Z,1.89
2022-12-08T09:43:21.645Z,1.96
2022-12-08T09:45:48.155Z,2.10
2022-12-08T09:48:19.251Z,2.40
2022-12-08T09:50:48.125Z,2.40
2022-12-08T09:53:23.423Z,2.38
2022-12-08T09:55:53.965Z,2.58
2022-12-08T09:58:20.648Z,2.71
2022-12-08T10:00:47.175Z,2.70
2022-12-08T10:03:16.822Z,2.55
2022-12-08T10:05:47.834Z,2.51
2022-12-08T10:08:21.453Z,2.70
2022-12-08T10:10:51.529Z,2.87
2022-12-08T10:13:17.998Z,3.07
2022-12-08T10:15:59.149Z,3.13
2022-12-08T10:18:27.773Z,3.29
2022-12-08T10:20:54.265Z,3.30
2022-12-08T10:23:20.767Z,3.29
2022-12-08T10:25:48.612Z,3.29
2022-12-08T10:28:15.122Z,3.51
2022-12-08T10:30:41.912Z,3.68
2022-12-08T10:33:15.326Z,3.96
2022-12-08T10:35:44.864Z,3.88
2022-12-08T10:38:26.307Z,4.21
2022-12-08T10:40:53.867Z,4.33
2022-12-08T10:43:22.114Z,4.48
2022-12-08T10:45:48.700Z,4.69
2022-12-08T10:48:16.877Z,4.86
2022-12-08T10:50:52.591Z,4.95
2022-12-08T10:53:19.051Z,4.87
2022-12-08T10:55:46.638Z,5.12
2022-12-08T10:58:23.381Z,5.36
2022-12-08T11:00:54.554Z,5.52
2022-12-08T11:03:29.116Z,5.55
2022-12-08T11:05:56.352Z,5.45
2022-12-08T11:08:22.907Z,5.35
2022-12-08T11:10:49.822Z,5.18
2022-12-08T11:13:18.303Z,5.23
2022-12-08T11:15:44.833Z,5.22
2022-12-08T11:18:30.359Z,5.21
2022-12-08T11:20:59.403Z,5.18
2022-12-08T11:23:26.775Z,5.23
2022-12-08T11:25:53.939Z,5.33
2022-12-08T11:28:22.338Z,5.25
2022-12-08T11:30:50.469Z,5.25
2022-12-08T11:33:27.091Z,5.25
2022-12-08T11:35:58.054Z,5.22
2022-12-08T11:38:25.174Z,5.18
2022-12-08T11:40:56.063Z,5.12
2022-12-08T11:43:34.804Z,5.26
2022-12-08T11:46:24.459Z,5.27
2022-12-08T11:48:53.409Z,5.20
2022-12-08T11:51:27.402Z,5.20
2022-12-08T11:53:56.878Z,5.16
2022-12-08T11:56:37.217Z,5.24
2022-12-08T11:59:09.918Z,5.15
2022-12-08T12:01:42.228Z,5.23
2022-12-08T12:04:12.235Z,5.27
2022-12-08T12:06:57.518Z,5.33
2022-12-08T12:09:42.633Z,5.22
2022-12-08T12:12:15.994Z,5.33
2022-12-08T12:14:45.260Z,5.35
2022-12-08T12:17:31.496Z,5.22
2022-12-08T12:19:59.147Z,5.27
2022-12-08T12:22:25.673Z,5.43
2022-12-08T12:24:52.299Z,5.42
2022-12-08T12:27:18.763Z,5.41
2022-12-08T12:29:49.818Z,5.35
2022-12-08T12:32:20.435Z,5.42
2022-12-08T12:34:48.317Z,5.46
2022-12-08T12:37:15.657Z,5.61
2022-12-08T12:39:50.170Z,5.45
2022-12-08T12:42:36.067Z,5.62
2022-12-08T12:45:26.044Z,5.64
2022-12-08T12:48:12.917Z,5.48
2022-12-08T12:50:39.435Z,5.42
2022-12-08T12:53:13.612Z,5.50
2022-12-08T12:55:46.623Z,5.61
2022-12-08T12:58:23.670Z,5.74
2022-12-08T13:00:50.202Z,5.73
2022-12-08T13:03:16.849Z,5.72
2022-12-08T13:05:48.621Z,5.73
2022-12-08T13:08:18.771Z,5.78
2022-12-08T13:11:05.329Z,5.70
2022-12-08T13:13:31.925Z,5.61
2022-12-08T13:16:18.815Z,5.64
2022-12-08T13:18:52.712Z,5.41
2022-12-08T13:21:20.332Z,5.59
2022-12-08T13:23:47.955Z,5.71
2022-12-08T13:26:18.500Z,5.70
2022-12-08T13:29:07.168Z,5.68
2022-12-08T13:31:48.542Z,5.72
2022-12-08T13:34:21.510Z,5.80
2022-12-08T13:36:53.908Z,5.67
2022-12-08T13:39:22.121Z,5.76
2022-12-08T13:41:51.768Z,5.76
2022-12-08T13:47:33.461Z,5.70
2022-12-08T13:58:40.054Z,5.55
2022-12-08T14:01:06.917Z,5.55
2022-12-08T14:04:04.363Z,5.66
2022-12-08T14:06:31.655Z,5.64
2022-12-08T14:09:04.987Z,5.46
2022-12-08T14:11:36.490Z,5.47
2022-12-08T14:14:07.910Z,5.32
2022-12-08T14:16:38.932Z,5.48
2022-12-08T14:19:31.865Z,5.44
2022-12-08T14:21:58.360Z,5.28
2022-12-08T14:24:25.391Z,5.19
2022-12-08T14:26:55.947Z,5.23
2022-12-08T14:29:30.469Z,5.13
2022-12-08T14:31:57.672Z,5.12
2022-12-08T14:34:24.193Z,5.06
2022-12-08T14:36:50.692Z,5.06
2022-12-08T14:39:17.665Z,5.00
2022-12-08T14:41:58.400Z,4.88
2022-12-08T14:44:24.971Z,4.84
2022-12-08T14:47:08.281Z,4.92
2022-12-08T14:49:35.509Z,4.81
2022-12-08T14:52:02.137Z,4.79
2022-12-08T14:54:29.511Z,4.65
2022-12-08T14:56:56.276Z,4.65
2022-12-08T14:59:27.177Z,4.61
2022-12-08T15:01:55.964Z,4.72
2022-12-08T15:04:25.989Z,4.69
2022-12-08T15:06:54.470Z,4.68
2022-12-08T15:09:30.207Z,4.54
2022-12-08T15:12:03.500Z,4.47
2022-12-08T15:14:34.496Z,4.50
2022-12-08T15:17:01.031Z,4.55
2022-12-08T15:19:31.450Z,4.32
2022-12-08T15:21:59.487Z,4.40
2022-12-08T15:24:27.081Z,4.46
2022-12-08T15:26:53.723Z,4.41
2022-12-08T15:29:20.735Z,4.29
2022-12-08T15:31:47.532Z,4.26
2022-12-08T15:34:14.059Z,4.17
2022-12-08T15:36:45.942Z,4.15
2022-12-08T15:39:25.142Z,4.20
2022-12-08T15:41:51.732Z,4.20
2022-12-08T15:44:18.214Z,4.17
2022-12-08T15:46:44.918Z,4.23
2022-12-08T15:49:17.017Z,4.30
2022-12-08T15:51:43.596Z,4.21
2022-12-08T15:54:13.357Z,4.23
2022-12-08T15:57:10.452Z,4.22
2022-12-08T15:59:30.909Z,4.20
2022-12-08T16:01:57.621Z,4.11
2022-12-08T16:07:27.721Z,4.13
2022-12-08T16:09:54.685Z,4.08
2022-12-08T16:13:48.154Z,4.12
2022-12-08T16:16:01.842Z,4.17
2022-12-08T16:18:23.999Z,4.22
2022-12-08T16:21:16.620Z,4.18
2022-12-08T16:23:45.203Z,4.20
2022-12-08T16:29:02.336Z,4.23
2022-12-08T16:31:29.024Z,4.22
2022-12-08T16:33:55.647Z,4.09
2022-12-08T16:36:22.172Z,4.22
2022-12-08T16:38:48.698Z,4.26
2022-12-08T16:41:34.272Z,4.25
2022-12-08T16:44:04.238Z,4.13
2022-12-08T16:46:30.918Z,4.16
2022-12-08T16:48:58.986Z,4.22
2022-12-08T16:51:27.322Z,4.25
2022-12-08T16:53:54.814Z,4.15
2022-12-08T16:56:25.024Z,4.21
2022-12-08T16:58:55.412Z,4.09
2022-12-08T17:01:23.647Z,4.13
2022-12-08T17:04:14.230Z,4.14
2022-12-08T17:06:36.858Z,4.09
2022-12-08T17:09:03.563Z,4.09
2022-12-08T17:11:37.443Z,4.02
2022-12-08T17:14:09.244Z,3.93
2022-12-08T17:16:35.930Z,4.01
2022-12-08T17:19:02.526Z,4.00
2022-12-08T17:21:29.061Z,3.94
2022-12-08T17:23:55.647Z,3.85
2022-12-08T17:26:22.184Z,3.74
2022-12-08T17:29:00.505Z,3.79
2022-12-08T17:31:30.257Z,3.73
2022-12-08T17:34:04.180Z,3.78
2022-12-08T17:36:30.699Z,3.71
2022-12-08T17:38:58.873Z,3.80
2022-12-08T17:41:25.393Z,3.91
2022-12-08T17:43:51.910Z,3.92
2022-12-08T17:46:18.952Z,3.73
2022-12-08T17:48:45.519Z,3.89
2022-12-08T17:51:12.044Z,3.89
2022-12-08T17:53:40.682Z,4.06
2022-12-08T17:56:08.494Z,3.89
2022-12-08T17:58:34.976Z,3.76
2022-12-08T18:01:01.550Z,3.70
2022-12-08T18:03:28.080Z,3.68
2022-12-08T18:05:54.572Z,3.70
2022-12-08T18:08:21.095Z,3.70
2022-12-08T18:10:47.608Z,3.65
2022-12-08T18:13:14.172Z,3.59
2022-12-08T18:15:40.782Z,3.62
2022-12-08T18:18:07.566Z,3.67
2022-12-08T18:20:34.936Z,3.68
2022-12-08T18:23:01.608Z,3.54
2022-12-08T18:25:28.211Z,3.62
2022-12-08T18:27:54.763Z,3.57
2022-12-08T18:30:21.434Z,3.42
2022-12-08T18:32:49.872Z,3.47
2022-12-08T18:35:19.452Z,3.41
2022-12-08T18:37:47.051Z,3.26
2022-12-08T18:40:13.805Z,3.17
2022-12-08T18:42:40.320Z,3.20
2022-12-08T18:45:07.260Z,3.20
2022-12-08T18:47:34.416Z,3.15
2022-12-08T18:50:01.067Z,3.09
2022-12-08T18:52:32.024Z,3.05
2022-12-08T18:55:06.192Z,3.08
2022-12-08T18:57:33.297Z,3.01
2022-12-08T18:59:59.904Z,3.07
2022-12-08T19:02:26.432Z,3.25
2022-12-08T19:04:55.055Z,3.25
2022-12-08T19:07:21.597Z,3.07
2022-12-08T19:09:48.193Z,3.10
2022-12-08T19:12:14.824Z,3.00
2022-12-08T19:14:41.324Z,2.96
2022-12-08T19:17:07.949Z,2.98
2022-12-08T19:19:34.725Z,2.83
2022-12-08T19:22:01.238Z,2.84
2022-12-08T19:24:27.854Z,2.85
2022-12-08T19:26:54.437Z,2.76
2022-12-08T19:29:20.956Z,2.71
2022-12-08T19:31:47.580Z,2.64
2022-12-08T19:34:14.207Z,2.66
2022-12-08T19:36:43.077Z,2.75
2022-12-08T19:39:35.046Z,2.84
2022-12-08T19:42:20.242Z,2.71
2022-12-08T19:44:52.641Z,2.54
2022-12-08T19:47:23.438Z,2.40
2022-12-08T19:49:50.137Z,2.29
2022-12-08T19:52:16.678Z,2.02
2022-12-08T19:54:43.231Z,1.98
2022-12-08T19:57:11.588Z,1.96
2022-12-08T19:59:38.648Z,2.10
2022-12-08T20:02:05.531Z,1.94
2022-12-08T20:04:32.151Z,1.81
2022-12-08T20:06:58.814Z,1.85
2022-12-08T20:09:25.521Z,1.76
2022-12-08T20:11:54.666Z,1.70
2022-12-08T20:14:22.257Z,1.63
2022-12-08T20:16:49.190Z,1.51
2022-12-08T20:19:15.821Z,1.62
2022-12-08T20:21:42.436Z,1.76
2022-12-08T20:24:09.072Z,1.54
2022-12-08T20:26:35.590Z,1.47
2022-12-08T20:29:04.631Z,1.37
2022-12-08T20:31:31.924Z,1.35
2022-12-08T20:33:58.655Z,1.31
2022-12-08T20:36:25.480Z,1.25
2022-12-08T20:38:52.418Z,1.29
2022-12-08T20:41:19.470Z,1.25
2022-12-08T20:43:46.622Z,1.19
2022-12-08T20:46:14.115Z,1.18
2022-12-08T20:48:40.916Z,1.14
2022-12-08T20:51:07.457Z,1.18
2022-12-08T20:53:34.188Z,1.09
2022-12-08T20:56:00.839Z,1.14
2022-12-08T20:58:27.335Z,1.11
2022-12-08T21:00:54.129Z,1.04
2022-12-08T21:03:20.894Z,1.16
2022-12-08T21:05:50.992Z,1.36
2022-12-08T21:08:18.113Z,1.07
2022-12-08T21:10:44.833Z,0.96
2022-12-08T21:13:11.367Z,1.25
2022-12-08T21:15:38.216Z,1.26
2022-12-08T21:18:04.844Z,1.00
2022-12-08T21:20:31.531Z,0.91
2022-12-08T21:22:58.183Z,0.88
2022-12-08T21:25:24.926Z,0.84
2022-12-08T21:27:51.664Z,0.80
2022-12-08T21:30:18.190Z,0.73
2022-12-08T21:32:45.366Z,0.71
2022-12-08T21:35:12.149Z,0.71
2022-12-08T21:37:38.774Z,0.71
2022-12-08T21:40:06.245Z,0.64
2022-12-08T21:42:45.264Z,0.61
2022-12-08T21:45:13.201Z,0.59
2022-12-08T21:47:39.988Z,0.50
2022-12-08T21:50:07.644Z,0.46
2022-12-08T21:52:37.987Z,0.48
2022-12-08T21:55:04.938Z,0.43
2022-12-08T21:57:31.622Z,0.36
2022-12-08T21:59:58.301Z,0.28
2022-12-08T22:02:25.031Z,0.21
2022-12-08T22:04:52.825Z,0.17
2022-12-08T22:07:20.019Z,0.19
2022-12-08T22:09:47.357Z,0.09
2022-12-08T22:12:14.271Z,0.09
2022-12-08T22:14:40.863Z,0.10
2022-12-08T22:17:07.833Z,0.12
2022-12-08T22:19:34.796Z,0.08
2022-12-08T22:22:01.599Z,0.03
2022-12-08T22:24:31.346Z,0.08
2022-12-08T22:26:58.025Z,0.13
2022-12-08T22:29:24.643Z,0.17
2022-12-08T22:31:51.478Z,0.01
2022-12-08T22:34:18.172Z,0.06
2022-12-08T22:36:44.847Z,0.10
2022-12-08T22:39:12.675Z,0.04
2022-12-08T22:41:39.435Z,0.02
2022-12-08T22:44:06.514Z,-0.12
2022-12-08T22:46:33.319Z,-0.02
2022-12-08T22:49:00.127Z,-0.01
2022-12-08T22:51:26.765Z,-0.06
2022-12-08T22:53:53.385Z,-0.03
2022-12-08T22:56:20.036Z,0.19
2022-12-08T22:58:46.917Z,0.14
2022-12-08T23:01:24.097Z,0.02
2022-12-08T23:03:50.991Z,-0.01
2022-12-08T23:06:17.971Z,-0.09
2022-12-08T23:08:58.543Z,-0.14
2022-12-08T23:11:29.717Z,-0.25
2022-12-08T23:13:57.711Z,-0.31
2022-12-08T23:16:24.495Z,-0.38
2022-12-08T23:18:51.073Z,-0.47
2022-12-08T23:21:18.298Z,-0.53
2022-12-08T23:23:45.126Z,-0.54
2022-12-08T23:26:14.035Z,-0.49
2022-12-08T23:28:40.624Z,-0.53
2022-12-08T23:31:07.776Z,-0.53
2022-12-08T23:33:34.265Z,-0.49
2022-12-08T23:36:01.361Z,-0.48
2022-12-08T23:38:27.874Z,-0.49
2022-12-08T23:40:54.522Z,-0.59
2022-12-08T23:43:21.143Z,-0.59
2022-12-08T23:45:50.137Z,-0.59
2022-12-08T23:48:17.137Z,-0.74
2022-12-08T23:50:43.872Z,-0.68
2022-12-08T23:53:10.529Z,-0.75
2022-12-08T23:55:37.135Z,-0.78
2022-12-08T23:58:03.828Z,-0.71
